createdAt,value
2019-05-10T00:01:32.603Z,64.79
2019-05-10T00:04:06.307Z,64.40
2019-05-10T00:06:40.030Z,64.49
2019-05-10T00:09:13.749Z,63.47
2019-05-10T00:11:49.387Z,64.76
2019-05-10T00:14:22.881Z,64.00
2019-05-10T00:16:56.583Z,64.00
2019-05-10T00:19:30.295Z,64.48
2019-05-10T00:22:04.005Z,66.02
2019-05-10T00:24:37.738Z,66.68
2019-05-10T00:27:11.457Z,68.02
2019-05-10T00:29:45.196Z,66.93
2019-05-10T00:32:18.912Z,66.93
2019-05-10T00:34:52.613Z,65.81
2019-05-10T00:37:26.332Z,65.67
2019-05-10T00:40:00.245Z,66.78
2019-05-10T00:42:33.955Z,66.63
2019-05-10T00:45:07.655Z,65.67
2019-05-10T00:47:41.847Z,65.67
2019-05-10T00:50:15.574Z,65.28
2019-05-10T00:52:49.287Z,64.76
2019-05-10T00:55:23.004Z,65.44
2019-05-10T00:57:56.707Z,65.44
2019-05-10T01:00:30.423Z,66.84
2019-05-10T01:03:04.136Z,66.84
2019-05-10T01:05:37.853Z,65.89
2019-05-10T01:08:11.584Z,66.68
2019-05-10T01:10:45.284Z,65.51
2019-05-10T01:13:18.987Z,65.51
2019-05-10T01:15:52.796Z,66.27
2019-05-10T01:18:26.500Z,68.51
2019-05-10T01:21:00.231Z,68.51
2019-05-10T01:23:33.940Z,67.29
2019-05-10T01:26:07.657Z,67.29
2019-05-10T01:28:41.396Z,68.00
2019-05-10T01:31:15.100Z,67.88
2019-05-10T01:33:49.399Z,70.07
2019-05-10T01:36:23.272Z,68.92
2019-05-10T01:38:56.986Z,68.92
2019-05-10T01:41:30.684Z,71.54
2019-05-10T01:44:04.418Z,71.30
2019-05-10T01:46:38.136Z,71.30
2019-05-10T01:49:11.846Z,70.21
2019-05-10T01:51:45.947Z,72.09
2019-05-10T01:54:19.649Z,72.09
2019-05-10T01:56:53.373Z,72.82
2019-05-10T01:59:27.085Z,73.85
2019-05-10T02:02:00.782Z,73.85
2019-05-10T02:04:34.969Z,74.94
2019-05-10T02:07:08.703Z,74.06
2019-05-10T02:09:42.563Z,74.06
2019-05-10T02:12:16.279Z,72.60
2019-05-10T02:14:49.986Z,70.61
2019-05-10T02:17:23.942Z,71.23
2019-05-10T02:19:57.661Z,69.94
2019-05-10T02:22:31.379Z,69.73
2019-05-10T02:25:05.661Z,69.73
2019-05-10T02:27:39.387Z,70.03
2019-05-10T02:30:13.582Z,71.07
2019-05-10T02:32:47.298Z,71.33
2019-05-10T02:35:21.005Z,74.24
2019-05-10T02:37:54.712Z,74.18
2019-05-10T02:40:28.455Z,74.42
2019-05-10T02:43:02.169Z,74.42
2019-05-10T02:45:35.904Z,74.55
2019-05-10T02:48:09.619Z,74.18
2019-05-10T02:50:43.381Z,74.97
2019-05-10T02:53:17.080Z,75.61
2019-05-10T02:55:51.092Z,74.53
2019-05-10T02:58:24.879Z,73.06
2019-05-10T03:00:59.952Z,71.34
2019-05-10T03:03:33.665Z,71.34
2019-05-10T03:06:07.364Z,69.84
2019-05-10T03:08:46.610Z,71.04
2019-05-10T03:11:20.401Z,71.04
2019-05-10T03:13:54.099Z,71.33
2019-05-10T03:16:27.811Z,69.84
2019-05-10T03:19:01.526Z,69.71
2019-05-10T03:21:35.774Z,69.71
2019-05-10T03:24:09.493Z,70.59
2019-05-10T03:26:51.069Z,70.12
2019-05-10T03:29:18.612Z,70.12
2019-05-10T03:31:52.316Z,70.35
2019-05-10T03:34:26.041Z,70.35
2019-05-10T03:36:59.779Z,71.29
2019-05-10T03:39:33.520Z,71.29
2019-05-10T03:42:07.215Z,71.02
2019-05-10T03:44:40.938Z,71.24
2019-05-10T03:47:14.642Z,71.24
2019-05-10T03:49:48.351Z,73.26
2019-05-10T03:52:22.104Z,73.15
2019-05-10T03:54:55.879Z,72.36
2019-05-10T03:57:29.612Z,72.20
2019-05-10T04:00:06.222Z,71.81
2019-05-10T04:02:39.971Z,70.70
2019-05-10T04:05:13.872Z,71.44
2019-05-10T04:07:47.650Z,71.20
2019-05-10T04:10:21.446Z,71.08
2019-05-10T04:12:55.148Z,70.42
2019-05-10T04:15:28.861Z,70.42
2019-05-10T04:18:02.581Z,71.20
2019-05-10T04:20:36.292Z,72.22
2019-05-10T04:23:10.041Z,73.34
2019-05-10T04:25:43.759Z,72.73
2019-05-10T04:28:17.452Z,72.73
2019-05-10T04:30:51.159Z,71.77
2019-05-10T04:33:24.901Z,71.77
2019-05-10T04:35:58.599Z,72.65
2019-05-10T04:38:32.321Z,71.70
2019-05-10T04:41:06.024Z,70.91
2019-05-10T04:43:39.742Z,70.91
2019-05-10T04:46:13.456Z,70.61
2019-05-10T04:48:47.177Z,70.26
2019-05-10T04:51:20.893Z,70.26
2019-05-10T04:53:54.598Z,69.79
2019-05-10T04:56:28.307Z,70.24
2019-05-10T04:59:02.040Z,70.24
2019-05-10T05:01:35.760Z,71.03
2019-05-10T05:04:09.482Z,69.82
2019-05-10T05:06:43.192Z,69.82
2019-05-10T05:09:16.912Z,69.96
2019-05-10T05:11:50.635Z,71.03
2019-05-10T05:14:24.348Z,70.25
2019-05-10T05:16:58.114Z,72.79
2019-05-10T05:19:32.041Z,72.79
2019-05-10T05:22:05.802Z,72.45
2019-05-10T05:24:39.520Z,72.48
2019-05-10T05:27:17.937Z,72.48
2019-05-10T05:29:51.667Z,72.57
2019-05-10T05:32:25.382Z,72.57
2019-05-10T05:34:59.086Z,70.66
2019-05-10T05:37:32.802Z,71.48
2019-05-10T05:40:07.248Z,71.48
2019-05-10T05:42:40.980Z,71.14
2019-05-10T05:45:14.756Z,71.14
2019-05-10T05:47:51.016Z,70.43
2019-05-10T05:50:24.707Z,70.43
2019-05-10T05:52:58.428Z,71.86
2019-05-10T05:55:32.346Z,73.00
2019-05-10T05:58:08.676Z,73.75
2019-05-10T06:00:44.687Z,73.75
2019-05-10T06:03:19.403Z,75.61
2019-05-10T06:05:52.378Z,78.21
2019-05-10T06:08:26.101Z,79.75
2019-05-10T06:11:00.249Z,81.44
2019-05-10T06:13:34.106Z,80.82
2019-05-10T06:16:12.781Z,79.85
2019-05-10T06:18:47.383Z,80.08
2019-05-10T06:21:24.822Z,80.08
2019-05-10T06:23:54.062Z,79.41
2019-05-10T06:26:28.793Z,80.10
2019-05-10T06:29:04.546Z,80.10
2019-05-10T06:31:38.087Z,79.87
2019-05-10T06:34:11.830Z,79.89
2019-05-10T06:36:45.552Z,79.89
2019-05-10T06:39:19.244Z,78.83
2019-05-10T06:41:55.982Z,79.31
2019-05-10T06:44:31.250Z,79.31
2019-05-10T06:47:08.247Z,79.42
2019-05-10T06:49:41.032Z,78.96
2019-05-10T06:52:16.358Z,79.62
2019-05-10T06:54:50.423Z,78.03
2019-05-10T06:57:24.143Z,77.66
2019-05-10T07:00:06.224Z,78.74
2019-05-10T07:02:33.263Z,79.06
2019-05-10T07:05:06.972Z,79.67
2019-05-10T07:07:44.710Z,79.71
2019-05-10T07:10:19.491Z,79.71
2019-05-10T07:12:56.996Z,81.13
2019-05-10T07:15:26.930Z,81.13
2019-05-10T07:18:00.690Z,81.54
2019-05-10T07:20:34.448Z,80.88
2019-05-10T07:23:08.168Z,80.87
2019-05-10T07:25:44.026Z,80.42
2019-05-10T07:28:17.823Z,80.42
2019-05-10T07:30:51.650Z,79.04
2019-05-10T07:33:25.366Z,79.04
2019-05-10T07:35:59.075Z,79.35
2019-05-10T07:38:32.929Z,79.57
2019-05-10T07:41:06.786Z,79.57
2019-05-10T07:43:40.754Z,79.10
2019-05-10T07:46:14.463Z,79.09
2019-05-10T07:48:53.518Z,77.98
2019-05-10T07:51:28.845Z,79.54
2019-05-10T07:54:04.497Z,79.54
2019-05-10T07:56:38.931Z,80.10
2019-05-10T07:59:09.849Z,79.22
2019-05-10T08:01:43.581Z,76.80
2019-05-10T08:04:25.232Z,76.80
2019-05-10T08:06:52.691Z,77.17
2019-05-10T08:09:26.424Z,77.17
2019-05-10T08:12:04.877Z,76.18
2019-05-10T08:14:35.544Z,76.77
2019-05-10T08:17:09.259Z,76.00
2019-05-10T08:19:42.977Z,75.33
2019-05-10T08:22:16.691Z,74.57
2019-05-10T08:24:52.652Z,74.97
2019-05-10T08:27:25.814Z,73.43
2019-05-10T08:30:17.802Z,73.43
2019-05-10T08:32:35.150Z,76.32
2019-05-10T08:35:15.956Z,76.01
2019-05-10T08:37:44.452Z,74.79
2019-05-10T08:40:19.833Z,74.79
2019-05-10T08:43:03.199Z,74.19
2019-05-10T08:45:28.993Z,75.11
2019-05-10T08:48:06.920Z,74.49
2019-05-10T08:50:49.687Z,74.49
2019-05-10T08:53:16.422Z,74.65
2019-05-10T08:55:49.300Z,74.59
2019-05-10T08:58:31.394Z,72.75
2019-05-10T09:01:12.123Z,73.64
2019-05-10T09:03:33.855Z,73.64
2019-05-10T09:06:12.020Z,72.32
2019-05-10T09:08:43.318Z,70.81
2019-05-10T09:11:17.107Z,71.73
2019-05-10T09:13:53.168Z,71.73
2019-05-10T09:16:29.097Z,69.82
2019-05-10T09:19:02.579Z,69.82
2019-05-10T09:21:40.956Z,69.71
2019-05-10T09:24:12.935Z,69.71
2019-05-10T09:26:51.615Z,68.97
2019-05-10T09:29:22.078Z,68.97
2019-05-10T09:31:55.799Z,68.64
2019-05-10T09:34:29.523Z,68.08
2019-05-10T09:37:08.216Z,68.70
2019-05-10T09:39:38.615Z,68.26
2019-05-10T09:42:24.963Z,68.26
2019-05-10T09:44:48.322Z,67.95
2019-05-10T09:47:22.270Z,68.53
2019-05-10T09:49:58.747Z,67.86
2019-05-10T09:52:31.438Z,67.99
2019-05-10T09:55:12.470Z,67.99
2019-05-10T09:57:41.045Z,68.08
2019-05-10T10:00:17.386Z,68.88
2019-05-10T10:02:56.402Z,69.18
2019-05-10T10:05:25.736Z,69.18
2019-05-10T10:08:03.575Z,69.33
2019-05-10T10:10:39.153Z,69.03
2019-05-10T10:13:33.983Z,68.76
2019-05-10T10:15:53.065Z,68.76
2019-05-10T10:18:28.757Z,68.12
2019-05-10T10:21:03.265Z,68.12
2019-05-10T10:23:37.722Z,68.29
2019-05-10T10:26:12.564Z,68.16
2019-05-10T10:28:49.729Z,67.71
2019-05-10T10:31:29.555Z,67.07
2019-05-10T10:34:00.343Z,67.07
2019-05-10T10:36:33.263Z,67.58
2019-05-10T10:39:07.569Z,66.47
2019-05-10T10:41:41.323Z,66.47
2019-05-10T10:44:15.052Z,67.49
2019-05-10T10:46:48.743Z,66.92
2019-05-10T10:49:23.061Z,66.92
2019-05-10T10:51:57.871Z,66.52
2019-05-10T10:54:36.478Z,67.54
2019-05-10T10:57:08.057Z,66.88
2019-05-10T10:59:41.914Z,67.89
2019-05-10T11:02:31.369Z,68.43
2019-05-10T11:04:51.030Z,68.43
2019-05-10T11:07:24.723Z,68.15
2019-05-10T11:10:08.151Z,68.58
2019-05-10T11:12:33.838Z,69.05
2019-05-10T11:15:07.547Z,69.52
2019-05-10T11:17:41.254Z,69.52
2019-05-10T11:20:14.968Z,68.93
2019-05-10T11:22:51.717Z,68.83
2019-05-10T11:25:24.084Z,67.61
2019-05-10T11:27:59.216Z,67.38
2019-05-10T11:30:33.198Z,67.18
2019-05-10T11:33:15.486Z,67.32
2019-05-10T11:35:42.282Z,67.32
2019-05-10T11:38:16.332Z,66.12
2019-05-10T11:40:50.196Z,65.98
2019-05-10T11:43:27.049Z,65.98
2019-05-10T11:45:59.374Z,63.68
2019-05-10T11:48:37.394Z,63.10
2019-05-10T11:51:12.281Z,62.52
2019-05-10T11:53:48.901Z,61.40
2019-05-10T11:56:25.042Z,62.05
2019-05-10T11:58:55.537Z,62.05
2019-05-10T12:01:29.495Z,63.72
2019-05-10T12:04:05.149Z,61.52
2019-05-10T12:06:41.367Z,59.21
2019-05-10T12:09:14.005Z,59.04
2019-05-10T12:11:56.621Z,57.19
2019-05-10T12:14:23.136Z,57.93
2019-05-10T12:16:56.880Z,56.84
2019-05-10T12:19:36.891Z,56.84
2019-05-10T12:22:05.985Z,58.11
2019-05-10T12:24:54.003Z,58.03
2019-05-10T12:27:25.402Z,58.86
2019-05-10T12:29:55.442Z,59.44
2019-05-10T12:32:26.967Z,59.16
2019-05-10T12:35:01.565Z,59.16
2019-05-10T12:37:39.412Z,58.89
2019-05-10T12:40:14.864Z,58.10
2019-05-10T12:42:47.140Z,58.10
2019-05-10T12:45:23.364Z,57.39
2019-05-10T12:47:56.572Z,57.39
2019-05-10T12:50:30.274Z,55.45
2019-05-10T12:53:14.314Z,55.76
2019-05-10T12:55:39.393Z,56.59
2019-05-10T12:58:13.896Z,56.59
2019-05-10T13:00:52.496Z,54.70
2019-05-10T13:03:25.260Z,54.91
2019-05-10T13:05:58.358Z,54.91
2019-05-10T13:08:32.054Z,54.72
2019-05-10T13:11:05.744Z,56.74
2019-05-10T13:13:39.461Z,57.94
2019-05-10T13:16:13.186Z,57.94
2019-05-10T13:18:51.819Z,59.38
2019-05-10T13:21:23.174Z,59.70
2019-05-10T13:23:57.041Z,57.83
2019-05-10T13:26:30.754Z,57.83
2019-05-10T13:29:08.270Z,56.34
2019-05-10T13:31:44.079Z,56.18
2019-05-10T13:34:15.282Z,54.90
2019-05-10T13:36:49.005Z,54.95
2019-05-10T13:39:25.537Z,54.87
2019-05-10T13:42:03.172Z,54.01
2019-05-10T13:44:37.009Z,54.01
2019-05-10T13:47:09.013Z,55.21
2019-05-10T13:49:42.722Z,55.21
2019-05-10T13:52:16.628Z,53.41
2019-05-10T13:54:50.320Z,52.99
2019-05-10T13:57:24.197Z,53.88
2019-05-10T13:59:57.889Z,53.86
2019-05-10T14:02:34.353Z,52.58
2019-05-10T14:05:11.797Z,52.58
2019-05-10T14:07:50.329Z,52.08
2019-05-10T14:10:22.796Z,52.24
2019-05-10T14:12:55.922Z,52.24
2019-05-10T14:15:28.653Z,53.04
2019-05-10T14:18:02.361Z,53.20
2019-05-10T14:20:36.067Z,53.20
2019-05-10T14:23:09.829Z,52.70
2019-05-10T14:25:43.535Z,53.00
2019-05-10T14:28:17.466Z,53.00
2019-05-10T14:30:57.047Z,52.38
2019-05-10T14:33:26.663Z,51.95
2019-05-10T14:36:02.766Z,50.40
2019-05-10T14:38:35.856Z,50.29
2019-05-10T14:41:11.617Z,49.95
2019-05-10T14:43:44.987Z,49.16
2019-05-10T14:46:18.696Z,49.16
2019-05-10T14:48:52.398Z,50.44
2019-05-10T14:51:40.376Z,50.44
2019-05-10T14:54:06.457Z,48.47
2019-05-10T14:56:36.910Z,48.87
2019-05-10T14:59:10.614Z,50.37
2019-05-10T15:01:45.513Z,50.37
2019-05-10T15:04:43.838Z,50.20
2019-05-10T15:06:54.902Z,48.85
2019-05-10T15:09:28.605Z,49.73
2019-05-10T15:12:02.310Z,48.60
2019-05-10T15:14:36.030Z,49.12
2019-05-10T15:17:09.730Z,49.12
2019-05-10T15:19:56.519Z,48.70
2019-05-10T15:22:22.984Z,46.87
2019-05-10T15:24:54.314Z,46.87
2019-05-10T15:27:28.139Z,45.57
2019-05-10T15:30:05.155Z,46.90
2019-05-10T15:32:37.638Z,47.93
2019-05-10T15:35:11.535Z,46.41
2019-05-10T15:37:48.301Z,48.39
2019-05-10T15:40:21.037Z,47.84
2019-05-10T15:42:56.507Z,47.84
2019-05-10T15:45:30.450Z,48.68
2019-05-10T15:48:04.613Z,48.99
2019-05-10T15:50:41.225Z,48.50
2019-05-10T15:53:19.566Z,49.49
2019-05-10T15:55:52.335Z,49.49
2019-05-10T15:58:30.576Z,50.21
2019-05-10T16:01:01.700Z,49.71
2019-05-10T16:03:40.149Z,49.71
2019-05-10T16:06:15.680Z,49.97
2019-05-10T16:08:49.599Z,49.65
2019-05-10T16:11:25.169Z,49.52
2019-05-10T16:14:00.114Z,49.52
2019-05-10T16:16:37.248Z,50.16
2019-05-10T16:19:12.934Z,50.75
2019-05-10T16:21:46.553Z,49.97
2019-05-10T16:24:26.146Z,49.97
2019-05-10T16:27:00.007Z,49.68
2019-05-10T16:29:33.653Z,49.68
2019-05-10T16:32:06.824Z,50.12
2019-05-10T16:34:40.569Z,50.12
2019-05-10T16:37:14.271Z,48.84
2019-05-10T16:39:47.980Z,47.96
2019-05-10T16:42:21.822Z,47.72
2019-05-10T16:44:55.595Z,47.72
2019-05-10T16:47:29.321Z,47.58
2019-05-10T16:50:07.194Z,48.10
2019-05-10T16:52:40.886Z,48.63
2019-05-10T16:55:14.593Z,48.63
2019-05-10T16:57:48.297Z,47.13
2019-05-10T17:00:22.287Z,47.89
2019-05-10T17:02:56.001Z,47.89
2019-05-10T17:05:29.709Z,46.68
2019-05-10T17:08:03.401Z,47.71
2019-05-10T17:10:37.135Z,48.70
2019-05-10T17:13:10.825Z,47.92
2019-05-10T17:15:44.534Z,47.35
2019-05-10T17:18:19.966Z,47.65
2019-05-10T17:20:53.688Z,47.23
2019-05-10T17:23:27.391Z,46.96
2019-05-10T17:26:01.118Z,46.96
2019-05-10T17:28:37.256Z,46.91
2019-05-10T17:31:10.246Z,45.88
2019-05-10T17:33:44.382Z,47.29
2019-05-10T17:36:19.885Z,47.53
2019-05-10T17:38:55.486Z,46.87
2019-05-10T17:41:28.978Z,47.25
2019-05-10T17:44:02.715Z,47.25
2019-05-10T17:46:36.404Z,48.06
2019-05-10T17:49:10.130Z,48.06
2019-05-10T17:51:43.853Z,48.36
2019-05-10T17:54:17.543Z,47.85
2019-05-10T17:56:51.255Z,48.37
2019-05-10T17:59:24.961Z,47.87
2019-05-10T18:01:58.672Z,47.22
2019-05-10T18:04:32.353Z,47.81
2019-05-10T18:07:06.088Z,47.81
2019-05-10T18:09:39.789Z,47.09
2019-05-10T18:14:55.959Z,46.82
2019-05-10T18:17:27.710Z,47.01
2019-05-10T18:20:02.377Z,48.78
2019-05-10T18:22:43.471Z,48.78
2019-05-10T18:25:19.429Z,49.04
2019-05-10T18:27:47.157Z,48.49
2019-05-10T18:30:20.867Z,48.50
2019-05-10T18:32:54.569Z,48.39
2019-05-10T18:35:28.259Z,50.04
2019-05-10T18:38:02.014Z,50.04
2019-05-10T18:40:35.712Z,48.96
2019-05-10T18:43:09.381Z,48.96
2019-05-10T18:45:43.083Z,49.42
2019-05-10T18:48:16.829Z,50.74
2019-05-10T18:50:50.561Z,50.74
2019-05-10T18:53:24.279Z,51.33
2019-05-10T18:55:57.988Z,51.58
2019-05-10T18:58:31.759Z,53.20
2019-05-10T19:01:05.446Z,53.59
2019-05-10T19:03:39.174Z,53.59
2019-05-10T19:06:13.569Z,53.70
2019-05-10T19:08:47.545Z,53.12
2019-05-10T19:11:21.352Z,52.94
2019-05-10T19:13:55.180Z,52.94
2019-05-10T19:16:32.139Z,53.18
2019-05-10T19:19:04.360Z,53.54
2019-05-10T19:21:38.363Z,54.43
2019-05-10T19:24:12.277Z,54.43
2019-05-10T19:26:45.978Z,53.97
2019-05-10T19:29:19.691Z,55.11
2019-05-10T19:31:53.406Z,55.11
2019-05-10T19:34:27.124Z,55.11
2019-05-10T19:37:00.835Z,55.63
2019-05-10T19:39:34.588Z,55.63
2019-05-10T19:42:08.337Z,55.25
2019-05-10T19:44:42.287Z,55.45
2019-05-10T19:47:17.625Z,55.45
2019-05-10T19:49:53.297Z,54.67
2019-05-10T19:52:27.884Z,55.21
2019-05-10T19:55:01.690Z,56.45
2019-05-10T19:57:35.411Z,56.45
2019-05-10T20:00:09.109Z,55.36
2019-05-10T20:02:42.821Z,55.62
2019-05-10T20:05:16.538Z,55.56
2019-05-10T20:07:50.269Z,55.90
2019-05-10T20:10:23.990Z,55.15
2019-05-10T20:12:57.729Z,55.53
2019-05-10T20:15:31.429Z,55.97
2019-05-10T20:18:05.477Z,56.61
2019-05-10T20:20:39.361Z,55.88
2019-05-10T20:23:13.735Z,55.88
2019-05-10T20:25:47.451Z,56.38
2019-05-10T20:28:21.170Z,57.21
2019-05-10T20:30:54.897Z,56.82
2019-05-10T20:33:28.591Z,56.86
2019-05-10T20:36:02.292Z,56.88
2019-05-10T20:38:36.009Z,57.03
2019-05-10T20:41:09.708Z,57.03
2019-05-10T20:43:43.423Z,56.34
2019-05-10T20:46:17.143Z,56.34
2019-05-10T20:48:50.867Z,56.53
2019-05-10T20:51:24.580Z,56.39
2019-05-10T20:53:58.283Z,56.26
2019-05-10T20:56:32.012Z,56.62
2019-05-10T20:59:05.730Z,57.35
2019-05-10T21:01:39.452Z,57.90
2019-05-10T21:04:13.144Z,58.36
2019-05-10T21:06:46.839Z,58.36
2019-05-10T21:09:20.547Z,57.27
2019-05-10T21:11:54.274Z,57.27
2019-05-10T21:14:28.072Z,59.51
2019-05-10T21:17:01.796Z,58.93
2019-05-10T21:19:35.530Z,58.93
2019-05-10T21:22:09.231Z,58.78
2019-05-10T21:24:42.938Z,58.88
2019-05-10T21:27:22.533Z,59.67
2019-05-10T21:29:52.621Z,59.03
2019-05-10T21:32:28.960Z,59.03
2019-05-10T21:35:02.678Z,59.63
2019-05-10T21:37:36.474Z,59.98
2019-05-10T21:40:10.204Z,59.98
2019-05-10T21:42:43.899Z,59.88
2019-05-10T21:45:17.626Z,59.65
2019-05-10T21:47:52.082Z,59.07
2019-05-10T21:50:25.940Z,59.66
2019-05-10T21:52:59.669Z,58.95
2019-05-10T21:55:33.382Z,58.95
2019-05-10T21:58:07.080Z,58.66
2019-05-10T22:00:40.795Z,59.26
2019-05-10T22:03:14.508Z,59.26
2019-05-10T22:05:48.215Z,59.23
2019-05-10T22:08:21.955Z,58.67
2019-05-10T22:10:55.687Z,59.36
2019-05-10T22:13:29.560Z,59.36
2019-05-10T22:16:03.248Z,59.69
2019-05-10T22:18:36.984Z,59.69
2019-05-10T22:21:10.697Z,59.08
2019-05-10T22:23:44.411Z,59.31
2019-05-10T22:26:18.130Z,60.15
2019-05-10T22:28:51.836Z,59.82
2019-05-10T22:31:25.552Z,59.37
2019-05-10T22:33:59.229Z,60.21
2019-05-10T22:36:32.938Z,59.90
2019-05-10T22:39:07.762Z,60.20
2019-05-10T22:41:41.771Z,60.20
2019-05-10T22:44:15.512Z,60.63
2019-05-10T22:46:49.223Z,60.56
2019-05-10T22:49:22.940Z,61.21
2019-05-10T22:51:56.675Z,60.85
2019-05-10T22:54:30.734Z,60.85
2019-05-10T22:57:04.458Z,60.49
2019-05-10T22:59:38.150Z,61.36
2019-05-10T23:02:11.867Z,60.95
2019-05-10T23:04:45.566Z,60.95
2019-05-10T23:07:19.365Z,60.84
2019-05-10T23:09:53.082Z,60.77
2019-05-10T23:12:26.796Z,60.83
2019-05-10T23:15:00.515Z,61.39
2019-05-10T23:17:34.228Z,61.39
2019-05-10T23:20:07.940Z,60.85
2019-05-10T23:22:41.629Z,60.70
2019-05-10T23:25:15.322Z,61.04
2019-05-10T23:27:49.074Z,61.04
2019-05-10T23:30:22.863Z,61.24
2019-05-10T23:32:56.579Z,61.00
2019-05-10T23:35:30.310Z,60.90
2019-05-10T23:38:04.017Z,60.90
2019-05-10T23:40:37.730Z,61.69
2019-05-10T23:43:11.451Z,62.21
2019-05-10T23:45:45.150Z,62.21
2019-05-10T23:48:18.889Z,63.51
2019-05-10T23:50:52.608Z,63.40
2019-05-10T23:53:26.340Z,63.40
2019-05-10T23:56:00.062Z,63.99
2019-05-10T23:58:33.792Z,63.99
